createdAt,value
2023-04-21T00:02:17.600Z,25.15
2023-04-21T00:04:47.246Z,25.75
2023-04-21T00:07:16.432Z,25.17
2023-04-21T00:09:42.981Z,25.35
2023-04-21T00:12:09.369Z,25.63
2023-04-21T00:14:35.782Z,26.60
2023-04-21T00:17:02.170Z,25.70
2023-04-21T00:19:29.634Z,27.42
2023-04-21T00:21:58.814Z,25.25
2023-04-21T00:24:25.879Z,26.52
2023-04-21T00:26:52.292Z,25.70
2023-04-21T00:29:19.051Z,26.60
2023-04-21T00:31:45.628Z,25.98
2023-04-21T00:34:12.044Z,26.05
2023-04-21T00:36:38.414Z,26.33
2023-04-21T00:39:04.800Z,26.45
2023-04-21T00:41:31.343Z,25.83
2023-04-21T00:44:05.463Z,25.77
2023-04-21T00:46:32.366Z,26.80
2023-04-21T00:48:59.142Z,26.52
2023-04-21T00:51:27.373Z,27.05
2023-04-21T00:53:55.719Z,26.88
2023-04-21T00:56:22.389Z,27.23
2023-04-21T00:58:49.597Z,25.58
2023-04-21T01:01:17.178Z,25.92
2023-04-21T01:03:44.006Z,26.35
2023-04-21T01:06:10.591Z,26.08
2023-04-21T01:08:37.024Z,26.55
2023-04-21T01:11:13.441Z,26.48
2023-04-21T01:13:40.503Z,26.00
2023-04-21T01:16:08.102Z,27.35
2023-04-21T01:18:36.579Z,26.98
2023-04-21T01:21:04.283Z,26.80
2023-04-21T01:23:30.795Z,26.75
2023-04-21T01:25:57.174Z,28.67
2023-04-21T01:28:24.651Z,26.80
2023-04-21T01:30:51.509Z,28.45
2023-04-21T01:33:18.671Z,27.20
2023-04-21T01:35:45.522Z,28.02
2023-04-21T01:38:12.330Z,27.55
2023-04-21T01:40:39.212Z,27.50
2023-04-21T01:43:06.333Z,26.88
2023-04-21T01:45:32.727Z,26.73
2023-04-21T01:47:59.213Z,27.92
2023-04-21T01:50:25.760Z,27.10
2023-04-21T01:52:52.139Z,27.17
2023-04-21T01:55:18.614Z,27.75
2023-04-21T01:57:45.015Z,27.23
2023-04-21T02:00:12.113Z,27.45
2023-04-21T02:02:38.676Z,27.48
2023-04-21T02:05:05.683Z,28.00
2023-04-21T02:07:32.134Z,27.10
2023-04-21T02:09:58.588Z,27.13
2023-04-21T02:12:24.950Z,27.08
2023-04-21T02:14:51.484Z,26.83
2023-04-21T02:17:17.890Z,27.23
2023-04-21T02:19:44.263Z,26.80
2023-04-21T02:22:12.811Z,26.90
2023-04-21T02:24:39.489Z,27.13
2023-04-21T02:27:05.911Z,27.95
2023-04-21T02:29:32.362Z,27.00
2023-04-21T02:32:05.152Z,26.95
2023-04-21T02:34:36.982Z,26.42
2023-04-21T02:37:03.489Z,26.58
2023-04-21T02:39:30.071Z,26.05
2023-04-21T02:41:56.884Z,26.77
2023-04-21T02:44:23.283Z,25.75
2023-04-21T02:46:49.761Z,25.40
2023-04-21T02:49:16.364Z,26.05
2023-04-21T02:51:42.859Z,26.73
2023-04-21T02:54:09.261Z,25.33
2023-04-21T02:56:35.799Z,25.50
2023-04-21T02:59:02.269Z,24.33
2023-04-21T03:01:28.648Z,24.48
2023-04-21T03:03:55.285Z,24.52
2023-04-21T03:06:21.844Z,25.13
2023-04-21T03:08:48.265Z,24.95
2023-04-21T03:11:14.715Z,25.35
2023-04-21T03:13:41.264Z,23.52
2023-04-21T03:16:07.723Z,25.13
2023-04-21T03:18:37.029Z,24.98
2023-04-21T03:21:03.535Z,25.17
2023-04-21T03:23:29.909Z,25.77
2023-04-21T03:25:56.359Z,24.90
2023-04-21T03:28:22.764Z,24.65
2023-04-21T03:30:49.202Z,26.23
2023-04-21T03:33:15.615Z,25.58
2023-04-21T03:35:42.086Z,24.20
2023-04-21T03:38:08.467Z,25.50
2023-04-21T03:40:34.838Z,24.17
2023-04-21T03:43:01.256Z,25.38
2023-04-21T03:45:27.660Z,25.40
2023-04-21T03:47:55.411Z,25.10
2023-04-21T03:50:21.914Z,24.85
2023-04-21T03:52:48.363Z,25.95
2023-04-21T03:55:14.837Z,23.67
2023-04-21T03:57:42.111Z,24.17
2023-04-21T04:00:12.689Z,25.33
2023-04-21T04:02:39.393Z,24.15
2023-04-21T04:05:06.738Z,24.92
2023-04-21T04:07:33.435Z,24.45
2023-04-21T04:09:59.875Z,23.92
2023-04-21T04:12:26.349Z,23.63
2023-04-21T04:14:52.737Z,24.35
2023-04-21T04:17:19.174Z,24.42
2023-04-21T04:19:45.645Z,24.40
2023-04-21T04:22:12.308Z,23.10
2023-04-21T04:24:38.765Z,23.58
2023-04-21T04:27:05.637Z,24.23
2023-04-21T04:29:32.154Z,22.90
2023-04-21T04:32:01.310Z,23.00
2023-04-21T04:34:27.772Z,21.83
2023-04-21T04:36:54.143Z,24.23
2023-04-21T04:39:22.173Z,23.08
2023-04-21T04:41:48.718Z,23.52
2023-04-21T04:44:17.608Z,24.83
2023-04-21T04:46:45.539Z,24.92
2023-04-21T04:49:12.013Z,22.88
2023-04-21T04:51:38.699Z,23.70
2023-04-21T04:54:05.777Z,23.40
2023-04-21T04:56:32.231Z,22.38
2023-04-21T04:58:58.708Z,22.85
2023-04-21T05:01:30.216Z,22.35
2023-04-21T05:03:57.452Z,23.17
2023-04-21T05:06:24.068Z,22.58
2023-04-21T05:08:50.462Z,21.15
2023-04-21T05:11:16.838Z,22.20
2023-04-21T05:13:43.255Z,21.70
2023-04-21T05:16:11.258Z,22.05
2023-04-21T05:18:37.933Z,21.42
2023-04-21T05:21:04.692Z,20.85
2023-04-21T05:23:34.009Z,22.50
2023-04-21T05:26:03.404Z,21.63
2023-04-21T05:28:31.728Z,21.38
2023-04-21T05:30:58.176Z,21.25
2023-04-21T05:33:26.787Z,20.92
2023-04-21T05:35:53.430Z,22.20
2023-04-21T05:38:19.811Z,20.98
2023-04-21T05:40:53.392Z,19.50
2023-04-21T05:43:19.796Z,21.13
2023-04-21T05:45:46.218Z,20.45
2023-04-21T05:48:13.779Z,19.58
2023-04-21T05:50:40.268Z,20.88
2023-04-21T05:53:06.638Z,19.48
2023-04-21T05:55:37.040Z,19.73
2023-04-21T05:58:04.155Z,20.13
2023-04-21T06:00:30.542Z,19.75
2023-04-21T06:02:57.128Z,18.90
2023-04-21T06:05:23.652Z,17.90
2023-04-21T06:07:52.470Z,17.10
2023-04-21T06:10:19.362Z,18.23
2023-04-21T06:12:45.861Z,17.65
2023-04-21T06:15:12.297Z,17.55
2023-04-21T06:17:38.767Z,17.20
2023-04-21T06:20:05.761Z,17.13
2023-04-21T06:22:33.187Z,15.27
2023-04-21T06:25:00.631Z,15.32
2023-04-21T06:27:27.145Z,14.50
2023-04-21T06:29:56.790Z,14.27
2023-04-21T06:32:23.301Z,13.88
2023-04-21T06:34:49.735Z,14.35
2023-04-21T06:37:16.458Z,14.25
2023-04-21T06:39:42.929Z,13.88
2023-04-21T06:42:09.380Z,13.25
2023-04-21T06:44:36.140Z,12.90
2023-04-21T06:47:02.736Z,13.48
2023-04-21T06:49:29.232Z,12.82
2023-04-21T06:51:55.683Z,12.93
2023-04-21T06:54:22.124Z,13.52
2023-04-21T06:56:51.453Z,12.43
2023-04-21T06:59:18.078Z,12.73
2023-04-21T07:01:44.644Z,12.48
2023-04-21T07:04:11.036Z,13.35
2023-04-21T07:06:37.460Z,12.18
2023-04-21T07:09:03.876Z,13.00
2023-04-21T07:11:30.340Z,12.15
2023-04-21T07:13:57.379Z,11.20
2023-04-21T07:16:27.440Z,11.65
2023-04-21T07:18:56.257Z,11.40
2023-04-21T07:21:23.220Z,11.50
2023-04-21T07:23:49.645Z,10.82
2023-04-21T07:26:18.041Z,10.95
2023-04-21T07:28:44.418Z,10.55
2023-04-21T07:31:10.859Z,10.98
2023-04-21T07:33:37.360Z,10.50
2023-04-21T07:36:04.064Z,10.15
2023-04-21T07:38:30.627Z,10.50
2023-04-21T07:40:57.104Z,10.32
2023-04-21T07:43:23.611Z,9.68
2023-04-21T07:45:52.066Z,9.55
2023-04-21T07:48:19.011Z,10.25
2023-04-21T07:50:45.398Z,9.70
2023-04-21T07:53:11.829Z,9.30
2023-04-21T07:55:38.263Z,9.65
2023-04-21T07:58:05.074Z,9.00
2023-04-21T08:00:31.671Z,8.93
2023-04-21T08:02:58.197Z,9.38
2023-04-21T08:05:27.378Z,9.65
2023-04-21T08:07:55.623Z,9.00
2023-04-21T08:10:22.088Z,9.82
2023-04-21T08:12:48.546Z,8.85
2023-04-21T08:15:15.148Z,8.57
2023-04-21T08:17:41.665Z,8.95
2023-04-21T08:20:08.743Z,9.38
2023-04-21T08:22:37.770Z,9.02
2023-04-21T08:25:05.604Z,8.35
2023-04-21T08:27:32.093Z,8.30
2023-04-21T08:30:00.075Z,8.77
2023-04-21T08:32:26.762Z,8.43
2023-04-21T08:34:54.436Z,8.57
2023-04-21T08:37:21.461Z,7.72
2023-04-21T08:39:50.846Z,8.25
2023-04-21T08:42:17.904Z,8.20
2023-04-21T08:44:44.616Z,8.15
2023-04-21T08:47:11.646Z,8.43
2023-04-21T08:49:39.373Z,7.57
2023-04-21T08:52:06.072Z,8.10
2023-04-21T08:54:33.200Z,8.82
2023-04-21T08:57:11.896Z,8.23
2023-04-21T08:59:41.065Z,8.30
2023-04-21T09:02:09.888Z,7.22
2023-04-21T09:04:45.107Z,7.88
2023-04-21T09:07:12.823Z,7.25
2023-04-21T09:09:52.522Z,7.72
2023-04-21T09:12:19.384Z,7.50
2023-04-21T09:14:45.946Z,7.70
2023-04-21T09:17:12.560Z,7.60
2023-04-21T09:19:39.102Z,7.28
2023-04-21T09:22:05.887Z,7.43
2023-04-21T09:24:32.306Z,7.13
2023-04-21T09:26:58.732Z,7.10
2023-04-21T09:29:25.820Z,7.18
2023-04-21T09:31:52.912Z,6.97
2023-04-21T09:34:24.671Z,6.72
2023-04-21T09:37:04.441Z,6.78
2023-04-21T09:39:49.258Z,6.45
2023-04-21T09:42:19.383Z,6.95
2023-04-21T09:44:53.246Z,6.53
2023-04-21T09:47:31.041Z,6.68
2023-04-21T09:49:58.338Z,6.60
2023-04-21T09:52:27.877Z,6.38
2023-04-21T09:54:59.054Z,6.68
2023-04-21T09:57:26.157Z,7.03
2023-04-21T10:00:00.894Z,6.25
2023-04-21T10:02:30.599Z,6.00
2023-04-21T10:04:58.076Z,6.18
2023-04-21T10:07:24.573Z,6.32
2023-04-21T10:09:55.280Z,6.22
2023-04-21T10:12:23.058Z,6.38
2023-04-21T10:14:56.246Z,5.75
2023-04-21T10:17:25.009Z,5.55
2023-04-21T10:19:53.740Z,5.75
2023-04-21T10:22:31.786Z,5.40
2023-04-21T10:25:00.023Z,5.53
2023-04-21T10:27:43.009Z,5.57
2023-04-21T10:30:19.342Z,5.50
2023-04-21T10:32:46.339Z,5.43
2023-04-21T10:35:22.328Z,5.63
2023-04-21T10:37:49.899Z,5.28
2023-04-21T10:40:43.740Z,5.47
2023-04-21T10:43:43.296Z,5.65
2023-04-21T10:46:33.000Z,4.65
2023-04-21T10:49:13.086Z,4.95
2023-04-21T10:52:02.957Z,4.95
2023-04-21T10:54:43.019Z,5.28
2023-04-21T10:57:12.279Z,5.05
2023-04-21T10:59:39.004Z,4.10
2023-04-21T11:02:11.997Z,4.43
2023-04-21T11:04:45.363Z,5.32
2023-04-21T11:07:16.611Z,4.60
2023-04-21T11:09:43.967Z,4.18
2023-04-21T11:12:15.549Z,4.55
2023-04-21T11:14:43.597Z,3.97
2023-04-21T11:17:14.532Z,3.63
2023-04-21T11:19:41.120Z,3.80
2023-04-21T11:22:07.665Z,3.65
2023-04-21T11:24:34.288Z,3.55
2023-04-21T11:27:02.006Z,3.60
2023-04-21T11:29:31.921Z,4.38
2023-04-21T11:31:59.212Z,3.92
2023-04-21T11:34:26.418Z,3.78
2023-04-21T11:36:53.304Z,3.20
2023-04-21T11:39:21.977Z,3.00
2023-04-21T11:41:50.280Z,3.67
2023-04-21T11:44:36.034Z,3.25
2023-04-21T11:47:35.336Z,4.60
2023-04-21T11:50:02.237Z,4.07
2023-04-21T11:52:34.234Z,3.15
2023-04-21T11:57:29.583Z,2.97
2023-04-21T12:00:06.509Z,2.58
2023-04-21T12:02:33.600Z,2.88
2023-04-21T12:05:03.009Z,3.33
2023-04-21T12:07:31.648Z,3.22
2023-04-21T12:09:58.791Z,2.85
2023-04-21T12:12:27.885Z,3.20
2023-04-21T12:14:54.472Z,2.78
2023-04-21T12:17:21.339Z,3.20
2023-04-21T12:19:47.945Z,3.30
2023-04-21T12:22:16.299Z,3.17
2023-04-21T12:24:43.334Z,2.85
2023-04-21T12:27:10.337Z,3.03
2023-04-21T12:29:38.445Z,2.75
2023-04-21T12:32:06.048Z,2.83
2023-04-21T12:34:32.924Z,2.75
2023-04-21T12:36:59.459Z,3.05
2023-04-21T12:39:26.090Z,3.45
2023-04-21T12:41:52.717Z,2.67
2023-04-21T12:44:19.080Z,3.15
2023-04-21T12:46:46.101Z,3.53
2023-04-21T12:49:12.669Z,3.38
2023-04-21T12:51:41.452Z,3.15
2023-04-21T12:54:07.895Z,3.20
2023-04-21T12:56:34.274Z,2.83
2023-04-21T12:59:00.717Z,2.67
2023-04-21T13:01:27.228Z,3.30
2023-04-21T13:03:54.006Z,2.70
2023-04-21T13:06:20.564Z,2.63
2023-04-21T13:08:47.111Z,3.08
2023-04-21T13:11:13.822Z,3.00
2023-04-21T13:13:40.243Z,3.38
2023-04-21T13:16:06.635Z,2.92
2023-04-21T13:18:34.899Z,2.78
2023-04-21T13:21:01.783Z,3.00
2023-04-21T13:23:28.551Z,3.30
2023-04-21T13:25:55.684Z,2.92
2023-04-21T13:28:22.470Z,2.90
2023-04-21T13:30:50.746Z,3.17
2023-04-21T13:33:17.334Z,3.05
2023-04-21T13:35:43.802Z,2.75
2023-04-21T13:38:10.276Z,3.10
2023-04-21T13:40:36.895Z,3.20
2023-04-21T13:43:03.443Z,2.80
2023-04-21T13:45:29.899Z,3.65
2023-04-21T13:47:58.225Z,2.38
2023-04-21T13:50:25.128Z,2.90
2023-04-21T13:52:51.556Z,2.78
2023-04-21T13:55:18.087Z,3.22
2023-04-21T13:57:44.508Z,3.22
2023-04-21T14:00:11.911Z,3.03
2023-04-21T14:02:39.389Z,2.92
2023-04-21T14:05:06.377Z,3.25
2023-04-21T14:07:33.640Z,3.03
2023-04-21T14:10:00.129Z,3.22
2023-04-21T14:12:26.736Z,2.65
2023-04-21T14:14:53.290Z,2.95
2023-04-21T14:17:19.747Z,3.13
2023-04-21T14:19:46.371Z,2.83
2023-04-21T14:22:12.951Z,3.15
2023-04-21T14:24:39.356Z,3.13
2023-04-21T14:27:06.163Z,2.75
2023-04-21T14:29:32.840Z,3.05
2023-04-21T14:31:59.583Z,3.15
2023-04-21T14:34:26.126Z,3.00
2023-04-21T14:36:53.111Z,2.95
2023-04-21T14:39:19.819Z,3.40
2023-04-21T14:41:46.230Z,3.10
2023-04-21T14:44:13.138Z,3.25
2023-04-21T14:46:39.719Z,3.00
2023-04-21T14:49:06.327Z,3.05
2023-04-21T14:51:32.885Z,2.75
2023-04-21T14:53:59.485Z,3.28
2023-04-21T14:56:25.977Z,3.30
2023-04-21T14:58:52.508Z,2.75
2023-04-21T15:01:19.367Z,2.97
2023-04-21T15:03:46.025Z,2.90
2023-04-21T15:06:12.604Z,2.70
2023-04-21T15:08:39.857Z,2.75
2023-04-21T15:11:06.384Z,2.85
2023-04-21T15:13:32.897Z,2.30
2023-04-21T15:15:59.350Z,2.88
2023-04-21T15:18:25.772Z,2.50
2023-04-21T15:20:55.596Z,2.60
2023-04-21T15:23:22.041Z,2.47
2023-04-21T15:25:48.429Z,3.22
2023-04-21T15:28:14.862Z,3.08
2023-04-21T15:30:41.305Z,2.70
2023-04-21T15:33:07.890Z,2.90
2023-04-21T15:35:34.323Z,2.72
2023-04-21T15:38:00.984Z,2.90
2023-04-21T15:40:27.354Z,2.60
2023-04-21T15:42:53.904Z,2.65
2023-04-21T15:45:20.318Z,2.78
2023-04-21T15:47:46.786Z,2.88
2023-04-21T15:50:13.232Z,2.58
2023-04-21T15:52:43.218Z,2.50
2023-04-21T15:55:12.684Z,3.10
2023-04-21T15:57:39.203Z,2.65
2023-04-21T16:00:07.264Z,3.47
2023-04-21T16:02:33.953Z,2.95
2023-04-21T16:05:01.080Z,2.83
2023-04-21T16:07:27.795Z,3.05
2023-04-21T16:09:54.314Z,3.20
2023-04-21T16:12:20.808Z,2.88
2023-04-21T16:14:55.796Z,2.72
2023-04-21T16:17:27.557Z,2.70
2023-04-21T16:19:54.301Z,3.00
2023-04-21T16:22:20.862Z,3.30
2023-04-21T16:24:48.046Z,2.85
2023-04-21T16:27:14.551Z,2.88
2023-04-21T16:29:41.082Z,2.75
2023-04-21T16:32:08.236Z,2.83
2023-04-21T16:34:34.820Z,2.90
2023-04-21T16:37:01.315Z,3.10
2023-04-21T16:39:27.696Z,2.58
2023-04-21T16:41:54.114Z,3.08
2023-04-21T16:44:20.574Z,2.97
2023-04-21T16:46:47.245Z,2.92
2023-04-21T16:49:13.818Z,3.20
2023-04-21T16:51:44.565Z,3.00
2023-04-21T16:54:11.626Z,2.88
2023-04-21T16:56:38.763Z,2.78
2023-04-21T16:59:06.628Z,3.40
2023-04-21T17:01:33.223Z,2.63
2023-04-21T17:03:59.815Z,3.03
2023-04-21T17:06:26.743Z,2.88
2023-04-21T17:08:59.557Z,3.03
2023-04-21T17:11:27.529Z,3.00
2023-04-21T17:13:54.025Z,2.95
2023-04-21T17:16:20.569Z,3.00
2023-04-21T17:18:47.054Z,2.92
2023-04-21T17:21:13.493Z,2.92
2023-04-21T17:23:39.899Z,3.20
2023-04-21T17:26:07.055Z,2.80
2023-04-21T17:28:33.621Z,2.70
2023-04-21T17:31:13.872Z,2.70
2023-04-21T17:33:42.385Z,2.97
2023-04-21T17:36:08.853Z,2.90
2023-04-21T17:38:35.414Z,2.70
2023-04-21T17:41:02.012Z,3.03
2023-04-21T17:43:28.599Z,3.47
2023-04-21T17:45:55.145Z,3.00
2023-04-21T17:48:21.677Z,2.97
2023-04-21T17:50:48.180Z,3.15
2023-04-21T17:53:14.601Z,3.13
2023-04-21T17:55:41.073Z,3.00
2023-04-21T17:58:10.138Z,3.20
2023-04-21T18:00:38.146Z,3.10
2023-04-21T18:03:04.934Z,3.13
2023-04-21T18:05:31.569Z,3.28
2023-04-21T18:07:58.160Z,3.05
2023-04-21T18:10:25.856Z,3.45
2023-04-21T18:12:53.329Z,3.08
2023-04-21T18:15:19.960Z,3.60
2023-04-21T18:17:46.424Z,3.42
2023-04-21T18:20:14.816Z,3.60
2023-04-21T18:22:43.621Z,3.13
2023-04-21T18:25:11.715Z,3.25
2023-04-21T18:27:41.372Z,3.30
2023-04-21T18:30:11.525Z,3.47
2023-04-21T18:32:38.386Z,3.50
2023-04-21T18:35:06.072Z,3.60
2023-04-21T18:37:32.757Z,3.42
2023-04-21T18:39:59.198Z,3.22
2023-04-21T18:42:26.350Z,3.70
2023-04-21T18:44:56.294Z,3.67
2023-04-21T18:47:24.408Z,3.40
2023-04-21T18:49:51.478Z,3.60
2023-04-21T18:52:17.950Z,3.20
2023-04-21T18:54:44.420Z,4.07
2023-04-21T18:57:10.860Z,3.67
2023-04-21T18:59:37.330Z,3.42
2023-04-21T19:02:05.985Z,3.50
2023-04-21T19:04:32.612Z,3.35
2023-04-21T19:06:59.032Z,3.40
2023-04-21T19:09:27.156Z,3.67
2023-04-21T19:11:53.556Z,3.08
2023-04-21T19:14:19.967Z,3.95
2023-04-21T19:16:47.460Z,3.58
2023-04-21T19:19:13.938Z,3.80
2023-04-21T19:21:40.423Z,3.03
2023-04-21T19:24:06.858Z,3.53
2023-04-21T19:26:33.223Z,3.38
2023-04-21T19:28:59.698Z,3.40
2023-04-21T19:31:26.430Z,3.70
2023-04-21T19:33:53.008Z,4.05
2023-04-21T19:36:19.446Z,3.47
2023-04-21T19:38:45.819Z,3.63
2023-04-21T19:41:13.127Z,3.50
2023-04-21T19:43:39.521Z,3.67
2023-04-21T19:46:06.271Z,4.00
2023-04-21T19:48:32.813Z,3.03
2023-04-21T19:50:59.298Z,3.70
2023-04-21T19:53:25.764Z,3.40
2023-04-21T19:55:52.819Z,3.50
2023-04-21T19:58:32.108Z,3.30
2023-04-21T20:01:05.090Z,3.58
2023-04-21T20:03:31.791Z,3.10
2023-04-21T20:05:58.469Z,3.40
2023-04-21T20:08:24.894Z,3.22
2023-04-21T20:10:51.272Z,3.35
2023-04-21T20:13:17.661Z,3.50
2023-04-21T20:15:44.103Z,3.10
2023-04-21T20:18:10.785Z,3.60
2023-04-21T20:20:37.429Z,3.65
2023-04-21T20:23:03.977Z,3.50
2023-04-21T20:25:30.458Z,3.25
2023-04-21T20:27:57.480Z,3.97
2023-04-21T20:30:23.991Z,3.40
2023-04-21T20:32:50.473Z,3.25
2023-04-21T20:35:17.115Z,3.17
2023-04-21T20:37:44.374Z,3.20
2023-04-21T20:40:11.792Z,3.50
2023-04-21T20:42:39.071Z,3.22
2023-04-21T20:45:06.438Z,3.20
2023-04-21T20:47:33.942Z,3.78
2023-04-21T20:50:00.556Z,3.17
2023-04-21T20:52:27.039Z,3.70
2023-04-21T20:54:53.439Z,3.45
2023-04-21T20:57:19.915Z,3.60
2023-04-21T20:59:46.451Z,3.25
2023-04-21T21:02:13.054Z,3.58
2023-04-21T21:04:39.661Z,3.60
2023-04-21T21:07:06.424Z,3.78
2023-04-21T21:09:32.883Z,3.65
2023-04-21T21:11:59.348Z,3.38
2023-04-21T21:14:25.995Z,3.92
2023-04-21T21:16:54.570Z,3.75
2023-04-21T21:19:22.030Z,3.30
2023-04-21T21:21:48.486Z,3.47
2023-04-21T21:24:14.926Z,4.15
2023-04-21T21:26:42.869Z,3.85
2023-04-21T21:29:09.461Z,3.80
2023-04-21T21:31:35.930Z,3.65
2023-04-21T21:34:03.931Z,3.75
2023-04-21T21:36:31.808Z,3.60
2023-04-21T21:38:58.199Z,3.63
2023-04-21T21:41:24.622Z,3.95
2023-04-21T21:43:50.983Z,3.10
2023-04-21T21:46:18.572Z,3.95
2023-04-21T21:48:45.174Z,4.32
2023-04-21T21:51:11.611Z,3.70
2023-04-21T21:53:38.026Z,3.50
2023-04-21T21:56:05.072Z,3.17
2023-04-21T21:58:31.567Z,3.58
2023-04-21T22:00:58.097Z,3.22
2023-04-21T22:03:24.818Z,3.30
2023-04-21T22:05:52.179Z,3.88
2023-04-21T22:08:18.640Z,3.70
2023-04-21T22:10:45.209Z,3.58
2023-04-21T22:13:11.905Z,4.07
2023-04-21T22:15:38.746Z,3.92
2023-04-21T22:18:05.532Z,3.67
2023-04-21T22:20:32.277Z,3.83
2023-04-21T22:22:59.201Z,3.60
2023-04-21T22:25:27.093Z,3.63
2023-04-21T22:27:54.679Z,3.42
2023-04-21T22:30:21.359Z,3.42
2023-04-21T22:32:47.858Z,3.90
2023-04-21T22:35:14.355Z,3.58
2023-04-21T22:37:41.308Z,4.38
2023-04-21T22:40:08.350Z,4.85
2023-04-21T22:42:34.993Z,4.82
2023-04-21T22:45:01.609Z,4.13
2023-04-21T22:47:28.172Z,4.07
2023-04-21T22:49:55.784Z,4.00
2023-04-21T22:52:22.217Z,3.97
2023-04-21T22:54:48.597Z,3.75
2023-04-21T22:57:15.016Z,4.40
2023-04-21T22:59:41.451Z,3.88
2023-04-21T23:02:08.226Z,4.10
2023-04-21T23:04:35.411Z,4.03
2023-04-21T23:07:01.827Z,4.75
2023-04-21T23:09:28.302Z,4.22
2023-04-21T23:11:54.680Z,4.55
2023-04-21T23:14:21.226Z,4.28
2023-04-21T23:16:47.680Z,3.83
2023-04-21T23:19:14.115Z,4.75
2023-04-21T23:21:40.577Z,4.57
2023-04-21T23:24:07.240Z,4.40
2023-04-21T23:26:33.694Z,4.38
2023-04-21T23:29:00.251Z,4.32
2023-04-21T23:31:26.778Z,4.75
2023-04-21T23:33:53.157Z,4.63
2023-04-21T23:36:19.581Z,5.10
2023-04-21T23:38:45.970Z,4.97
2023-04-21T23:41:12.360Z,4.65
2023-04-21T23:43:38.834Z,5.18
2023-04-21T23:46:05.483Z,5.22
2023-04-21T23:48:31.990Z,4.88
2023-04-21T23:50:58.479Z,4.95
2023-04-21T23:53:24.971Z,4.68
2023-04-21T23:55:51.390Z,5.55
2023-04-21T23:58:17.802Z,4.63
